createdAt,value
2022-08-25T00:02:03.205Z,6.55
2022-08-25T00:04:33.740Z,5.55
2022-08-25T00:07:04.541Z,5.85
2022-08-25T00:09:34.024Z,5.60
2022-08-25T00:12:01.577Z,5.30
2022-08-25T00:14:33.704Z,6.97
2022-08-25T00:17:01.729Z,5.65
2022-08-25T00:19:32.607Z,6.47
2022-08-25T00:22:01.044Z,5.97
2022-08-25T00:24:29.679Z,6.72
2022-08-25T00:26:58.672Z,6.50
2022-08-25T00:29:27.914Z,7.90
2022-08-25T00:31:56.085Z,6.22
2022-08-25T00:34:28.601Z,6.97
2022-08-25T00:36:56.118Z,6.15
2022-08-25T00:39:24.427Z,6.15
2022-08-25T00:41:54.198Z,6.50
2022-08-25T00:44:21.689Z,6.68
2022-08-25T00:46:53.905Z,6.88
2022-08-25T00:49:44.894Z,6.35
2022-08-25T00:52:22.339Z,6.45
2022-08-25T00:55:05.897Z,6.60
2022-08-25T00:57:46.636Z,6.60
2022-08-25T01:00:19.594Z,6.95
2022-08-25T01:02:47.286Z,8.00
2022-08-25T01:05:15.018Z,7.95
2022-08-25T01:07:44.640Z,7.95
2022-08-25T01:10:13.666Z,6.88
2022-08-25T01:12:41.702Z,7.35
2022-08-25T01:15:11.113Z,7.32
2022-08-25T01:17:53.887Z,6.78
2022-08-25T01:20:23.931Z,6.47
2022-08-25T01:22:56.816Z,6.78
2022-08-25T01:25:42.724Z,7.25
2022-08-25T01:28:10.429Z,6.85
2022-08-25T01:30:38.427Z,7.03
2022-08-25T01:33:07.646Z,6.40
2022-08-25T01:35:35.979Z,6.63
2022-08-25T01:38:05.396Z,7.03
2022-08-25T01:40:32.860Z,6.78
2022-08-25T01:43:14.997Z,6.57
2022-08-25T01:45:46.340Z,6.22
2022-08-25T01:48:15.002Z,6.80
2022-08-25T01:50:44.011Z,7.22
2022-08-25T01:53:28.439Z,6.40
2022-08-25T01:56:02.219Z,7.22
2022-08-25T01:58:34.731Z,6.63
2022-08-25T02:01:05.878Z,7.30
2022-08-25T02:03:33.292Z,6.53
2022-08-25T02:06:01.371Z,6.65
2022-08-25T02:08:31.855Z,7.40
2022-08-25T02:10:59.084Z,7.25
2022-08-25T02:13:26.809Z,7.15
2022-08-25T02:16:00.909Z,7.88
2022-08-25T02:18:28.370Z,7.57
2022-08-25T02:20:55.615Z,7.53
2022-08-25T02:23:22.935Z,7.30
2022-08-25T02:25:49.967Z,7.90
2022-08-25T02:28:17.386Z,7.13
2022-08-25T02:30:45.127Z,6.85
2022-08-25T02:33:12.469Z,7.25
2022-08-25T02:35:39.905Z,7.63
2022-08-25T02:38:07.930Z,6.97
2022-08-25T02:40:36.037Z,7.05
2022-08-25T02:43:03.930Z,6.78
2022-08-25T02:45:31.071Z,7.07
2022-08-25T02:47:58.222Z,6.82
2022-08-25T02:50:26.273Z,8.35
2022-08-25T02:52:53.434Z,7.85
2022-08-25T02:55:21.514Z,8.38
2022-08-25T02:57:48.892Z,8.35
2022-08-25T03:00:17.433Z,7.78
2022-08-25T03:02:47.336Z,7.53
2022-08-25T03:05:16.096Z,7.80
2022-08-25T03:07:43.654Z,8.02
2022-08-25T03:10:16.581Z,8.27
2022-08-25T03:12:43.836Z,8.30
2022-08-25T03:15:13.220Z,8.15
2022-08-25T03:17:40.935Z,8.20
2022-08-25T03:20:13.182Z,8.27
2022-08-25T03:22:40.519Z,7.65
2022-08-25T03:25:28.312Z,8.68
2022-08-25T03:27:56.024Z,7.72
2022-08-25T03:30:23.425Z,7.72
2022-08-25T03:32:50.839Z,8.57
2022-08-25T03:35:18.721Z,8.13
2022-08-25T03:37:45.981Z,8.50
2022-08-25T03:40:16.486Z,8.65
2022-08-25T03:42:45.972Z,9.27
2022-08-25T03:45:16.544Z,8.52
2022-08-25T03:47:47.532Z,9.52
2022-08-25T03:50:16.701Z,9.27
2022-08-25T03:52:44.380Z,8.73
2022-08-25T03:55:14.771Z,8.77
2022-08-25T03:57:42.375Z,8.40
2022-08-25T04:00:12.313Z,9.75
2022-08-25T04:02:41.007Z,8.75
2022-08-25T04:05:10.224Z,10.20
2022-08-25T04:07:38.541Z,10.13
2022-08-25T04:10:08.698Z,9.82
2022-08-25T04:12:37.925Z,10.35
2022-08-25T04:15:07.613Z,9.13
2022-08-25T04:17:38.050Z,9.63
2022-08-25T04:20:08.312Z,9.73
2022-08-25T04:22:36.838Z,9.23
2022-08-25T04:25:07.134Z,9.27
2022-08-25T04:27:34.417Z,8.98
2022-08-25T04:30:01.892Z,8.75
2022-08-25T04:32:31.519Z,10.55
2022-08-25T04:34:59.451Z,8.82
2022-08-25T04:37:26.847Z,10.45
2022-08-25T04:39:54.282Z,9.52
2022-08-25T04:42:21.975Z,9.90
2022-08-25T04:44:50.185Z,8.77
2022-08-25T04:47:17.791Z,9.25
2022-08-25T04:49:45.319Z,9.73
2022-08-25T04:52:13.180Z,9.55
2022-08-25T04:54:43.014Z,9.15
2022-08-25T04:57:10.572Z,9.18
2022-08-25T04:59:37.862Z,9.07
2022-08-25T05:02:06.875Z,8.80
2022-08-25T05:04:36.212Z,9.00
2022-08-25T05:07:04.534Z,9.35
2022-08-25T05:09:33.030Z,9.95
2022-08-25T05:12:02.906Z,8.18
2022-08-25T05:14:32.090Z,9.32
2022-08-25T05:17:03.160Z,8.68
2022-08-25T05:19:31.419Z,8.57
2022-08-25T05:21:58.601Z,8.10
2022-08-25T05:24:26.858Z,8.20
2022-08-25T05:26:54.316Z,8.20
2022-08-25T05:29:21.823Z,8.98
2022-08-25T05:31:50.846Z,8.38
2022-08-25T05:34:19.662Z,6.82
2022-08-25T05:36:47.679Z,6.43
2022-08-25T05:39:15.102Z,6.97
2022-08-25T05:41:42.490Z,5.32
2022-08-25T05:44:09.884Z,5.72
2022-08-25T05:46:37.339Z,6.07
2022-08-25T05:49:04.694Z,6.55
2022-08-25T05:51:31.893Z,5.68
2022-08-25T05:53:59.412Z,6.22
2022-08-25T05:56:26.689Z,5.95
2022-08-25T05:58:54.325Z,5.18
2022-08-25T06:01:45.097Z,5.57
2022-08-25T06:04:16.438Z,5.45
2022-08-25T06:09:11.291Z,5.85
2022-08-25T06:11:40.434Z,5.60
2022-08-25T06:14:09.628Z,5.28
2022-08-25T06:16:39.114Z,5.90
2022-08-25T06:19:08.658Z,5.15
2022-08-25T06:21:37.406Z,5.57
2022-08-25T06:24:05.392Z,6.47
2022-08-25T06:26:33.113Z,5.03
2022-08-25T06:29:00.359Z,4.43
2022-08-25T06:31:27.776Z,4.78
2022-08-25T06:33:55.434Z,5.07
2022-08-25T06:36:22.478Z,6.15
2022-08-25T06:38:49.883Z,5.03
2022-08-25T06:41:20.810Z,5.85
2022-08-25T06:43:51.792Z,6.03
2022-08-25T06:46:34.684Z,5.15
2022-08-25T06:49:06.278Z,4.70
2022-08-25T06:51:37.685Z,4.68
2022-08-25T06:54:06.666Z,4.43
2022-08-25T06:56:34.444Z,5.75
2022-08-25T06:59:03.491Z,4.45
2022-08-25T07:01:32.181Z,4.10
2022-08-25T07:04:01.728Z,4.63
2022-08-25T07:06:32.491Z,4.93
2022-08-25T07:09:00.226Z,5.07
2022-08-25T07:11:28.377Z,4.60
2022-08-25T07:13:55.705Z,4.55
2022-08-25T07:16:24.414Z,4.72
2022-08-25T07:19:00.201Z,4.10
2022-08-25T07:21:33.117Z,4.15
2022-08-25T07:24:01.797Z,4.20
2022-08-25T07:26:39.340Z,4.03
2022-08-25T07:29:16.107Z,4.85
2022-08-25T07:31:45.263Z,4.90
2022-08-25T07:34:34.723Z,5.10
2022-08-25T07:37:06.239Z,4.93
2022-08-25T07:39:34.884Z,4.57
2022-08-25T07:42:02.743Z,5.05
2022-08-25T07:44:29.985Z,5.03
2022-08-25T07:46:57.860Z,3.95
2022-08-25T07:49:26.620Z,4.53
2022-08-25T07:52:06.452Z,4.30
2022-08-25T07:54:37.969Z,3.75
2022-08-25T07:57:10.355Z,4.30
2022-08-25T07:59:42.567Z,3.83
2022-08-25T08:02:18.050Z,4.00
2022-08-25T08:04:49.913Z,4.05
2022-08-25T08:07:36.956Z,4.22
2022-08-25T08:13:02.360Z,4.15
2022-08-25T08:15:30.563Z,4.00
2022-08-25T08:17:59.769Z,5.07
2022-08-25T08:20:29.107Z,3.80
2022-08-25T08:22:56.740Z,4.03
2022-08-25T08:25:24.298Z,4.75
2022-08-25T08:27:55.418Z,3.92
2022-08-25T08:30:26.322Z,4.05
2022-08-25T08:33:11.793Z,3.70
2022-08-25T08:35:43.433Z,4.47
2022-08-25T08:38:17.261Z,4.78
2022-08-25T08:41:28.236Z,4.35
2022-08-25T08:44:22.443Z,4.28
2022-08-25T08:46:55.048Z,3.75
2022-08-25T08:49:38.041Z,4.85
2022-08-25T08:52:09.302Z,4.20
2022-08-25T08:54:42.587Z,4.72
2022-08-25T08:57:16.730Z,4.75
2022-08-25T09:00:09.520Z,3.50
2022-08-25T09:03:10.897Z,3.55
2022-08-25T09:05:47.642Z,4.25
2022-08-25T09:08:20.262Z,3.60
2022-08-25T09:11:20.006Z,4.03
2022-08-25T09:13:53.497Z,4.03
2022-08-25T09:16:57.275Z,3.28
2022-08-25T09:19:43.077Z,3.65
2022-08-25T09:22:35.520Z,3.20
2022-08-25T09:25:12.712Z,4.93
2022-08-25T09:27:58.993Z,3.70
2022-08-25T09:30:33.111Z,4.13
2022-08-25T09:33:05.206Z,4.63
2022-08-25T09:35:37.512Z,4.93
2022-08-25T09:38:09.568Z,3.88
2022-08-25T09:40:40.814Z,3.92
2022-08-25T09:43:35.428Z,3.30
2022-08-25T09:46:05.778Z,7.22
2022-08-25T09:48:43.086Z,4.30
2022-08-25T09:51:38.344Z,3.28
2022-08-25T09:54:13.929Z,3.60
2022-08-25T09:56:53.788Z,3.13
2022-08-25T09:59:35.932Z,3.88
2022-08-25T10:02:23.987Z,3.42
2022-08-25T10:04:52.461Z,3.33
2022-08-25T10:07:30.512Z,3.42
2022-08-25T10:10:07.838Z,3.63
2022-08-25T10:12:42.599Z,4.15
2022-08-25T10:15:30.866Z,3.55
2022-08-25T10:18:26.609Z,3.40
2022-08-25T10:21:13.419Z,3.65
2022-08-25T10:23:46.648Z,3.95
2022-08-25T10:26:27.984Z,3.00
2022-08-25T10:29:05.022Z,3.80
2022-08-25T10:31:41.490Z,3.40
2022-08-25T10:34:54.820Z,3.28
2022-08-25T10:37:47.506Z,3.58
2022-08-25T10:40:25.081Z,3.30
2022-08-25T10:43:08.580Z,2.20
2022-08-25T10:45:48.021Z,3.15
2022-08-25T10:48:30.843Z,3.00
2022-08-25T10:51:24.896Z,3.15
2022-08-25T10:54:13.172Z,2.72
2022-08-25T10:57:00.915Z,3.17
2022-08-25T10:59:53.072Z,2.97
2022-08-25T11:02:34.406Z,2.72
2022-08-25T11:05:43.063Z,2.65
2022-08-25T11:08:31.104Z,2.72
2022-08-25T11:11:24.458Z,4.05
2022-08-25T11:14:09.222Z,2.78
2022-08-25T11:16:45.446Z,3.10
2022-08-25T11:19:33.794Z,2.83
2022-08-25T11:22:38.532Z,2.10
2022-08-25T11:25:30.485Z,3.22
2022-08-25T11:28:16.723Z,2.53
2022-08-25T11:30:45.184Z,2.90
2022-08-25T11:33:20.095Z,2.33
2022-08-25T11:35:54.582Z,2.88
2022-08-25T11:38:57.654Z,2.88
2022-08-25T11:42:12.562Z,2.50
2022-08-25T11:44:45.521Z,2.33
2022-08-25T11:47:48.029Z,2.63
2022-08-25T11:50:35.350Z,2.38
2022-08-25T11:53:11.787Z,2.40
2022-08-25T11:55:43.797Z,2.40
2022-08-25T11:58:24.157Z,2.53
2022-08-25T12:00:54.286Z,2.47
2022-08-25T12:03:36.488Z,4.07
2022-08-25T12:06:28.022Z,3.88
2022-08-25T12:09:01.675Z,2.72
2022-08-25T12:11:52.401Z,3.05
2022-08-25T12:14:23.109Z,3.08
2022-08-25T12:16:56.738Z,2.50
2022-08-25T12:19:30.456Z,2.78
2022-08-25T12:22:19.375Z,2.92
2022-08-25T12:25:03.541Z,3.28
2022-08-25T12:27:38.336Z,2.35
2022-08-25T12:30:26.300Z,3.55
2022-08-25T12:33:16.885Z,4.13
2022-08-25T12:36:01.106Z,3.97
2022-08-25T12:38:28.455Z,2.53
2022-08-25T12:41:10.826Z,2.97
2022-08-25T12:43:46.243Z,2.70
2022-08-25T12:46:19.943Z,2.50
2022-08-25T12:49:00.845Z,2.95
2022-08-25T12:51:49.867Z,2.15
2022-08-25T12:54:55.554Z,2.78
2022-08-25T12:57:42.097Z,2.63
2022-08-25T13:00:42.585Z,4.45
2022-08-25T13:03:31.330Z,5.22
2022-08-25T13:06:26.868Z,3.20
2022-08-25T13:09:22.390Z,3.25
2022-08-25T13:12:10.202Z,3.42
2022-08-25T13:14:44.161Z,2.72
2022-08-25T13:17:12.650Z,2.70
2022-08-25T13:19:39.857Z,3.00
2022-08-25T13:22:16.097Z,3.40
2022-08-25T13:24:47.479Z,3.00
2022-08-25T13:27:29.840Z,3.83
2022-08-25T13:30:03.928Z,4.07
2022-08-25T13:32:39.700Z,4.05
2022-08-25T13:35:21.470Z,3.45
2022-08-25T13:37:50.298Z,3.13
2022-08-25T13:40:25.938Z,2.80
2022-08-25T13:43:01.092Z,3.45
2022-08-25T13:45:41.116Z,3.35
2022-08-25T13:48:22.509Z,3.25
2022-08-25T13:50:52.681Z,3.65
2022-08-25T13:53:30.495Z,3.83
2022-08-25T13:56:02.384Z,3.30
2022-08-25T13:58:39.018Z,3.53
2022-08-25T14:01:23.262Z,3.30
2022-08-25T14:04:33.286Z,3.40
2022-08-25T14:07:25.924Z,2.70
2022-08-25T14:10:05.072Z,4.13
2022-08-25T14:12:44.800Z,2.80
2022-08-25T14:15:29.659Z,3.63
2022-08-25T14:18:01.683Z,3.90
2022-08-25T14:20:32.247Z,3.50
2022-08-25T14:23:05.746Z,3.22
2022-08-25T14:25:40.450Z,3.05
2022-08-25T14:28:17.011Z,3.90
2022-08-25T14:30:52.268Z,3.65
2022-08-25T14:33:23.870Z,3.53
2022-08-25T14:35:54.276Z,3.97
2022-08-25T14:38:22.740Z,4.38
2022-08-25T14:40:51.270Z,3.78
2022-08-25T14:43:18.550Z,3.17
2022-08-25T14:45:52.003Z,3.10
2022-08-25T14:48:42.321Z,3.33
2022-08-25T14:51:12.715Z,2.80
2022-08-25T14:53:41.041Z,3.10
2022-08-25T14:56:10.268Z,3.20
2022-08-25T14:58:51.238Z,3.63
2022-08-25T15:01:29.221Z,3.30
2022-08-25T15:04:19.679Z,3.65
2022-08-25T15:06:51.613Z,3.22
2022-08-25T15:09:21.171Z,3.40
2022-08-25T15:11:51.821Z,3.95
2022-08-25T15:14:28.558Z,3.95
2022-08-25T15:17:02.029Z,3.90
2022-08-25T15:19:29.961Z,3.45
2022-08-25T15:21:57.951Z,3.28
2022-08-25T15:24:28.385Z,3.80
2022-08-25T15:27:01.202Z,2.95
2022-08-25T15:29:31.208Z,4.57
2022-08-25T15:32:00.618Z,3.93
2022-08-25T15:34:28.994Z,2.78
2022-08-25T15:37:07.004Z,3.35
2022-08-25T15:39:35.207Z,4.15
2022-08-25T15:42:03.182Z,3.78
2022-08-25T15:44:31.726Z,3.88
2022-08-25T15:47:00.576Z,4.35
2022-08-25T15:49:34.164Z,4.22
2022-08-25T15:52:02.081Z,3.60
2022-08-25T15:54:30.377Z,3.33
2022-08-25T15:56:58.014Z,4.00
2022-08-25T15:59:27.883Z,4.47
2022-08-25T16:01:55.545Z,3.15
2022-08-25T16:04:29.165Z,4.38
2022-08-25T16:06:57.275Z,4.45
2022-08-25T16:09:26.138Z,4.35
2022-08-25T16:11:56.619Z,4.85
2022-08-25T16:14:26.316Z,4.30
2022-08-25T16:16:58.011Z,3.97
2022-08-25T16:19:29.284Z,4.93
2022-08-25T16:21:57.607Z,5.28
2022-08-25T16:24:25.653Z,4.70
2022-08-25T16:26:56.043Z,4.50
2022-08-25T16:29:24.049Z,4.78
2022-08-25T16:31:53.238Z,5.35
2022-08-25T16:34:24.434Z,4.72
2022-08-25T16:36:53.549Z,5.45
2022-08-25T16:39:22.026Z,5.70
2022-08-25T16:41:52.665Z,4.47
2022-08-25T16:44:22.636Z,4.68
2022-08-25T16:46:54.276Z,4.30
2022-08-25T16:49:24.179Z,5.63
2022-08-25T16:51:56.954Z,4.43
2022-08-25T16:54:45.279Z,5.45
2022-08-25T16:57:13.417Z,4.88
2022-08-25T16:59:42.558Z,4.78
2022-08-25T17:02:17.690Z,5.80
2022-08-25T17:04:48.770Z,6.82
2022-08-25T17:07:16.441Z,6.22
2022-08-25T17:09:51.506Z,6.80
2022-08-25T17:12:20.611Z,5.75
2022-08-25T17:14:47.818Z,5.57
2022-08-25T17:17:15.105Z,5.47
2022-08-25T17:19:45.847Z,6.43
2022-08-25T17:22:15.850Z,7.03
2022-08-25T17:27:26.777Z,5.72
2022-08-25T17:29:54.738Z,5.47
2022-08-25T17:32:28.897Z,5.07
2022-08-25T17:34:59.447Z,5.43
2022-08-25T17:37:27.047Z,6.15
2022-08-25T17:39:56.795Z,6.50
2022-08-25T17:42:31.855Z,6.85
2022-08-25T17:44:58.993Z,6.43
2022-08-25T17:47:27.720Z,6.85
2022-08-25T17:49:54.930Z,6.78
2022-08-25T17:52:25.668Z,6.68
2022-08-25T17:54:53.235Z,6.97
2022-08-25T17:57:21.358Z,5.65
2022-08-25T17:59:48.666Z,7.15
2022-08-25T18:02:15.803Z,6.50
2022-08-25T18:04:43.509Z,5.95
2022-08-25T18:07:10.691Z,5.93
2022-08-25T18:09:38.114Z,5.53
2022-08-25T18:12:05.736Z,6.95
2022-08-25T18:14:33.354Z,5.55
2022-08-25T18:17:03.757Z,5.88
2022-08-25T18:19:32.356Z,5.80
2022-08-25T18:22:04.340Z,5.18
2022-08-25T18:24:32.590Z,6.03
2022-08-25T18:26:59.656Z,8.60
2022-08-25T18:29:27.348Z,6.68
2022-08-25T18:31:59.728Z,7.35
2022-08-25T18:34:27.815Z,8.57
2022-08-25T18:37:17.871Z,8.38
2022-08-25T18:40:04.047Z,8.20
2022-08-25T18:42:35.939Z,6.30
2022-08-25T18:45:06.162Z,6.10
2022-08-25T18:47:33.983Z,7.03
2022-08-25T18:50:04.464Z,6.55
2022-08-25T18:52:32.187Z,6.82
2022-08-25T18:55:00.380Z,6.50
2022-08-25T18:57:28.870Z,6.20
2022-08-25T18:59:56.129Z,5.97
2022-08-25T19:02:23.431Z,8.95
2022-08-25T19:04:52.785Z,10.27
2022-08-25T19:07:20.207Z,9.57
2022-08-25T19:09:47.480Z,15.05
2022-08-25T19:12:22.629Z,9.75
2022-08-25T19:14:50.661Z,10.73
2022-08-25T19:17:17.833Z,8.88
2022-08-25T19:19:45.186Z,8.88
2022-08-25T19:22:21.342Z,8.80
2022-08-25T19:24:59.961Z,7.78
2022-08-25T19:27:27.288Z,6.53
2022-08-25T19:29:54.433Z,7.18
2022-08-25T19:32:21.756Z,6.60
2022-08-25T19:34:51.535Z,6.18
2022-08-25T19:37:19.242Z,7.05
2022-08-25T19:39:52.957Z,6.78
2022-08-25T19:42:35.337Z,5.57
2022-08-25T19:45:08.204Z,6.43
2022-08-25T19:47:35.461Z,5.50
2022-08-25T19:50:02.827Z,5.70
2022-08-25T19:52:31.142Z,4.35
2022-08-25T19:55:00.119Z,5.65
2022-08-25T19:57:42.243Z,4.78
2022-08-25T20:00:15.746Z,5.72
2022-08-25T20:02:44.492Z,5.82
2022-08-25T20:05:13.150Z,5.68
2022-08-25T20:07:41.444Z,5.35
2022-08-25T20:10:14.265Z,6.82
2022-08-25T20:12:42.963Z,5.78
2022-08-25T20:15:11.978Z,6.25
2022-08-25T20:17:41.608Z,5.55
2022-08-25T20:20:12.062Z,7.43
2022-08-25T20:22:40.060Z,6.27
2022-08-25T20:25:15.271Z,6.13
2022-08-25T20:27:51.403Z,7.25
2022-08-25T20:30:25.249Z,6.82
2022-08-25T20:32:54.844Z,5.47
2022-08-25T20:35:26.683Z,6.40
2022-08-25T20:37:56.254Z,7.32
2022-08-25T20:40:27.270Z,6.22
2022-08-25T20:42:55.848Z,5.93
2022-08-25T20:45:23.496Z,5.63
2022-08-25T20:47:51.507Z,6.55
2022-08-25T20:50:19.952Z,5.15
2022-08-25T20:52:48.515Z,5.60
2022-08-25T20:55:18.914Z,4.57
2022-08-25T20:57:46.882Z,5.97
2022-08-25T21:00:15.994Z,4.47
2022-08-25T21:02:46.348Z,4.50
2022-08-25T21:05:14.401Z,6.03
2022-08-25T21:07:41.969Z,5.70
2022-08-25T21:10:14.515Z,5.05
2022-08-25T21:12:42.920Z,5.20
2022-08-25T21:15:11.272Z,4.78
2022-08-25T21:17:39.139Z,4.72
2022-08-25T21:20:08.346Z,4.68
2022-08-25T21:22:38.075Z,4.93
2022-08-25T21:25:06.895Z,5.30
2022-08-25T21:27:34.307Z,3.60
2022-08-25T21:30:01.589Z,4.50
2022-08-25T21:32:31.225Z,3.55
2022-08-25T21:34:58.504Z,3.45
2022-08-25T21:37:26.778Z,4.85
2022-08-25T21:39:54.364Z,4.03
2022-08-25T21:42:24.903Z,4.07
2022-08-25T21:44:52.862Z,3.40
2022-08-25T21:47:21.684Z,3.30
2022-08-25T21:49:51.050Z,3.50
2022-08-25T21:52:18.983Z,4.88
2022-08-25T21:54:51.136Z,3.03
2022-08-25T21:57:23.637Z,3.75
2022-08-25T21:59:51.787Z,3.35
2022-08-25T22:02:22.632Z,2.90
2022-08-25T22:07:24.471Z,3.58
2022-08-25T22:09:52.482Z,3.73
2022-08-25T22:12:20.024Z,3.72
2022-08-25T22:14:47.207Z,2.92
2022-08-25T22:17:17.052Z,3.53
2022-08-25T22:19:48.427Z,3.58
2022-08-25T22:22:22.482Z,3.80
2022-08-25T22:24:51.106Z,3.35
2022-08-25T22:27:23.446Z,3.25
2022-08-25T22:29:52.245Z,3.95
2022-08-25T22:32:20.164Z,3.28
2022-08-25T22:34:48.330Z,3.58
2022-08-25T22:37:18.030Z,3.33
2022-08-25T22:39:46.388Z,3.10
2022-08-25T22:42:14.262Z,3.72
2022-08-25T22:44:44.676Z,3.55
2022-08-25T22:47:13.216Z,3.30
2022-08-25T22:49:40.712Z,3.33
2022-08-25T22:52:09.419Z,3.88
2022-08-25T22:54:41.308Z,3.63
2022-08-25T22:57:08.561Z,2.40
2022-08-25T22:59:35.711Z,3.70
2022-08-25T23:02:03.197Z,2.67
2022-08-25T23:04:30.616Z,3.55
2022-08-25T23:06:57.817Z,3.17
2022-08-25T23:09:25.371Z,3.50
2022-08-25T23:11:52.641Z,2.97
2022-08-25T23:14:20.854Z,2.72
2022-08-25T23:16:50.255Z,3.65
2022-08-25T23:19:18.280Z,3.60
2022-08-25T23:22:03.970Z,3.75
2022-08-25T23:24:32.020Z,2.92
2022-08-25T23:27:00.922Z,3.53
2022-08-25T23:29:29.502Z,3.25
2022-08-25T23:31:58.507Z,3.15
2022-08-25T23:34:26.776Z,3.38
2022-08-25T23:36:57.185Z,3.35
2022-08-25T23:39:24.746Z,2.78
2022-08-25T23:41:52.765Z,3.45
2022-08-25T23:44:22.386Z,3.47
2022-08-25T23:46:52.932Z,2.75
2022-08-25T23:49:24.469Z,3.88
2022-08-25T23:51:53.020Z,3.30
2022-08-25T23:54:21.877Z,3.65
2022-08-25T23:57:00.146Z,3.90
2022-08-25T23:59:30.134Z,3.20
